Training

Spin Video   We captured this 11 turn spin one day while out enjoying a flight in the Super Decathlon. Our advanced stall and spin class generally does 2-3 turn … [Read More...]

Weather

METAR FOR KCHA (Issued: Fri, July 3rd 2015 6:53 AM UTC):
KCHA 030653Z AUTO 21004KT 10SM 24/22 A2991 RMK AO2 LTG DSNT S AND SW SLP123 T02390217 $

Accomplishments

Congratulations

Congratulations, Ray Sikich who soloed in N68810 on June 3, 2015 … [Read More...]

Congratulations

Congratulations to Bobby Fitzu, for soloing on May 8, 2015 … [Read More...]

Dallas Bay Skypark - 1A0